Medicine Lake, Minnesota
Current Conditions -  °F | °C
As of 9:53 AM on Friday 21 Nov 2014 (Local Time) from KMIC Reporting Station
Overcast Overcast  
Wind Chill:   Ceiling: 12000
Heat Index: 18°   Visibility: 10mi
Dew Point:   Wind: 12mph
Humidity: 68%   Direction: 160°SSE
Pressure: 30.15"   Gusts: NA
Location:  45.0038°N, 93.4289°W
Report Text: KMIC 211553Z 16010KT 10SM OVC120 M08/M13 A3015 RMK AO2 SLP228 T10781128
Loading
Personal Weather Stations






























Interactive Weather Map New forecast layout! Learn more

10-Day Weather Forecast

Advertisements
Track Severe Weather on mobile